Time;durP1;ratioP1;P1;durP2;ratioP2;P2;SDS_P1;SDS_P2;PMS_P1;PMS_P2;Temp;Humidity;BMP_temperature;BMP_pressure;BME280_temperature;BME280_humidity;BME280_pressure;Samples;Min_cycle;Max_cycle;Signal;HPM_P1;HPM_P2
2023/10/20 00:03:42;;;;;;;;;;;9.80;99.90;;;;;;12611237;28;19935;-37
2023/10/20 00:09:44;;;;;;;;;;;9.80;99.90;;;;;;12592403;28;19928;-37
2023/10/20 00:15:46;;;;;;;;;;;9.70;99.90;;;;;;12599678;28;19932;-37
2023/10/20 00:21:48;;;;;;;;;;;9.60;99.90;;;;;;12620759;28;19928;-37
2023/10/20 00:27:49;;;;;;;;;;;9.70;99.90;;;;;;12615252;28;20316;-36
2023/10/20 00:33:51;;;;;;;;;;;9.70;99.90;;;;;;12604202;28;20405;-37
2023/10/20 00:39:53;;;;;;;;;;;9.60;99.90;;;;;;12604613;28;19973;-37
2023/10/20 00:45:55;;;;;;;;;;;9.60;99.90;;;;;;12607198;28;20349;-37
2023/10/20 00:51:57;;;;;;;;;;;9.50;99.90;;;;;;12609706;28;20018;-37
2023/10/20 00:57:59;;;;;;;;;;;9.40;99.90;;;;;;12611919;28;19934;-37
2023/10/20 01:04:01;;;;;;;;;;;9.30;99.90;;;;;;12597416;28;20031;-37
2023/10/20 01:10:04;;;;;;;;;;;9.30;99.90;;;;;;12605900;28;19978;-36
2023/10/20 01:16:07;;;;;;;;;;;9.20;99.90;;;;;;12566127;28;20493;-36
2023/10/20 01:22:09;;;;;;;;;;;9.10;99.90;;;;;;12529261;28;19939;-37
2023/10/20 01:28:10;;;;;;;;;;;9.10;99.90;;;;;;12553306;28;19936;-36
2023/10/20 01:34:12;;;;;;;;;;;9.10;99.90;;;;;;12528599;28;20508;-37
2023/10/20 01:40:14;;;;;;;;;;;9.10;99.90;;;;;;12528693;28;19932;-37
2023/10/20 01:46:16;;;;;;;;;;;9.00;99.90;;;;;;12537440;28;19932;-36
2023/10/20 01:52:18;;;;;;;;;;;8.90;99.90;;;;;;12555004;28;20384;-37
2023/10/20 01:58:20;;;;;;;;;;;8.90;99.90;;;;;;12540901;28;20483;-36
2023/10/20 02:04:22;;;;;;;;;;;8.80;99.90;;;;;;12537051;28;20023;-36
2023/10/20 02:10:23;;;;;;;;;;;8.80;99.90;;;;;;12528408;28;19928;-36
2023/10/20 02:16:25;;;;;;;;;;;8.90;99.90;;;;;;12603832;28;20367;-36
2023/10/20 02:22:27;;;;;;;;;;;8.90;99.90;;;;;;12612999;28;20285;-37
2023/10/20 02:28:28;;;;;;;;;;;8.80;99.90;;;;;;12626788;28;19928;-36
2023/10/20 02:34:31;;;;;;;;;;;8.80;99.90;;;;;;12602639;28;19971;-36
2023/10/20 02:40:33;;;;;;;;;;;8.90;99.90;;;;;;12614535;28;19931;-36
2023/10/20 02:46:35;;;;;;;;;;;8.80;99.90;;;;;;12626368;28;20427;-37
2023/10/20 02:52:37;;;;;;;;;;;8.80;99.90;;;;;;12615649;28;19928;-37
2023/10/20 02:58:39;;;;;;;;;;;8.80;99.90;;;;;;12594542;28;20425;-36
2023/10/20 03:04:40;;;;;;;;;;;8.80;99.90;;;;;;12623658;28;19932;-36
2023/10/20 03:10:43;;;;;;;;;;;8.80;99.90;;;;;;12623587;28;19928;-36
2023/10/20 03:16:45;;;;;;;;;;;8.70;99.90;;;;;;12618422;28;19928;-36
2023/10/20 03:22:47;;;;;;;;;;;8.60;99.90;;;;;;12600603;28;19939;-37
2023/10/20 03:28:50;;;;;;;;;;;8.60;99.90;;;;;;12602029;28;19928;-36
2023/10/20 03:34:51;;;;;;;;;;;8.50;99.90;;;;;;12619452;28;20372;-36
2023/10/20 03:40:53;;;;;;;;;;;8.50;99.90;;;;;;12588119;28;19935;-36
2023/10/20 03:46:59;;;;;;;;;;;8.50;99.90;;;;;;12619783;28;20501;-36
2023/10/20 03:53:01;;;;;;;;;;;8.40;99.90;;;;;;12599621;28;20283;-36
2023/10/20 03:59:03;;;;;;;;;;;8.30;99.90;;;;;;12608129;28;20058;-36
2023/10/20 04:05:05;;;;;;;;;;;8.20;99.90;;;;;;12578254;28;19928;-36
2023/10/20 04:11:07;;;;;;;;;;;8.30;99.90;;;;;;12600822;28;19982;-36
2023/10/20 04:17:09;;;;;;;;;;;8.20;99.90;;;;;;12613190;28;19928;-36
2023/10/20 04:23:12;;;;;;;;;;;8.20;99.90;;;;;;12614790;28;20042;-37
2023/10/20 04:54:23;;;;;;;;;;;8.10;99.90;;;;;;12613673;28;19928;-36
2023/10/20 05:06:29;;;;;;;;;;;8.10;99.90;;;;;;12577579;28;19924;-36
2023/10/20 05:12:34;;;;;;;;;;;8.10;99.90;;;;;;12600701;28;19928;-36
2023/10/20 05:18:37;;;;;;;;;;;8.00;99.90;;;;;;12605777;28;19935;-36
2023/10/20 05:24:38;;;;;;;;;;;8.10;99.90;;;;;;12615542;28;19928;-37
2023/10/20 05:30:44;;;;;;;;;;;8.10;99.90;;;;;;12606340;28;20048;-36
2023/10/20 05:36:46;;;;;;;;;;;8.00;99.90;;;;;;12607758;28;19968;-36
2023/10/20 05:42:47;;;;;;;;;;;8.10;99.90;;;;;;12616607;28;21284;-36
2023/10/20 05:48:50;;;;;;;;;;;8.10;99.90;;;;;;12618923;28;20976;-36
2023/10/20 05:54:54;;;;;;;;;;;8.00;99.90;;;;;;12611328;28;20307;-36
2023/10/20 06:01:02;;;;;;;;;;;8.00;99.90;;;;;;12615900;28;19935;-36
2023/10/20 06:07:04;;;;;;;;;;;8.00;99.90;;;;;;12615605;28;20392;-36
2023/10/20 06:13:06;;;;;;;;;;;8.00;99.90;;;;;;12610858;28;19997;-36
2023/10/20 06:19:07;;;;;;;;;;;8.00;99.90;;;;;;12623004;28;19928;-36
2023/10/20 06:25:12;;;;;;;;;;;8.00;99.90;;;;;;12622987;28;19928;-36
2023/10/20 06:31:27;;;;;;;;;;;8.00;99.90;;;;;;12604561;28;20164;-36
2023/10/20 06:37:36;;;;;;;;;;;8.00;99.90;;;;;;12609644;28;19928;-37
2023/10/20 06:43:38;;;;;;;;;;;7.90;99.90;;;;;;12602305;28;19932;-36
2023/10/20 06:49:39;;;;;;;;;;;8.00;99.90;;;;;;12613871;28;19970;-36
2023/10/20 06:55:44;;;;;;;;;;;7.90;99.90;;;;;;12612888;28;19943;-36
2023/10/20 07:02:05;;;;;;;;;;;7.90;99.90;;;;;;12611514;28;19935;-36
2023/10/20 07:08:07;;;;;;;;;;;7.90;99.90;;;;;;12590407;28;20055;-36
2023/10/20 07:14:13;;;;;;;;;;;7.80;99.90;;;;;;12611581;28;19928;-36
2023/10/20 07:20:15;;;;;;;;;;;7.80;99.90;;;;;;12605521;28;19979;-36
2023/10/20 07:26:17;;;;;;;;;;;7.80;99.90;;;;;;12612849;28;20038;-36
2023/10/20 07:32:20;;;;;;;;;;;7.80;99.90;;;;;;12603609;28;19927;-36
2023/10/20 07:38:22;;;;;;;;;;;7.70;99.90;;;;;;12551155;28;20046;-36
2023/10/20 07:44:24;;;;;;;;;;;7.70;99.90;;;;;;12602513;28;19982;-36
2023/10/20 07:50:26;;;;;;;;;;;7.70;99.90;;;;;;12612227;28;19928;-36
2023/10/20 07:56:30;;;;;;;;;;;7.70;99.90;;;;;;12596534;28;19928;-36
2023/10/20 08:02:32;;;;;;;;;;;7.70;99.90;;;;;;12601790;28;19935;-36
2023/10/20 08:08:34;;;;;;;;;;;7.70;99.90;;;;;;12610622;28;20354;-35
2023/10/20 08:14:36;;;;;;;;;;;7.70;99.90;;;;;;12609862;28;20307;-36
2023/10/20 08:20:38;;;;;;;;;;;7.70;99.90;;;;;;12612874;28;19928;-36
2023/10/20 08:26:41;;;;;;;;;;;7.60;99.90;;;;;;12619400;28;19971;-36
2023/10/20 08:32:42;;;;;;;;;;;7.60;99.90;;;;;;12603012;28;19935;-36
2023/10/20 08:38:46;;;;;;;;;;;7.60;99.90;;;;;;12608754;28;19939;-36
2023/10/20 08:44:50;;;;;;;;;;;7.60;99.90;;;;;;12613887;28;19928;-36
2023/10/20 08:50:54;;;;;;;;;;;7.60;99.90;;;;;;12612478;28;19928;-36
2023/10/20 08:56:56;;;;;;;;;;;7.60;99.90;;;;;;12612012;28;20368;-36
2023/10/20 09:02:59;;;;;;;;;;;7.60;99.90;;;;;;12600305;28;19924;-36
2023/10/20 09:09:05;;;;;;;;;;;7.60;99.90;;;;;;12621655;28;19928;-36
2023/10/20 09:15:07;;;;;;;;;;;7.70;99.90;;;;;;12586575;28;19932;-36
2023/10/20 09:21:09;;;;;;;;;;;7.60;99.90;;;;;;12532276;28;19989;-36
2023/10/20 09:27:11;;;;;;;;;;;7.60;99.90;;;;;;12550254;28;20024;-35
2023/10/20 09:33:13;;;;;;;;;;;7.60;99.90;;;;;;12558114;28;20487;-36
2023/10/20 09:39:21;;;;;;;;;;;7.50;99.90;;;;;;12558456;28;19993;-36
2023/10/20 09:45:28;;;;;;;;;;;7.50;99.90;;;;;;12566022;28;19970;-36
2023/10/20 09:51:30;;;;;;;;;;;7.60;99.90;;;;;;12556018;28;19933;-36
2023/10/20 09:57:32;;;;;;;;;;;7.60;99.90;;;;;;12577106;28;19934;-36
2023/10/20 10:03:40;;;;;;;;;;;7.60;99.90;;;;;;12555718;28;19924;-36
2023/10/20 10:09:49;;;;;;;;;;;7.50;99.90;;;;;;12557655;28;19932;-36
2023/10/20 10:15:51;;;;;;;;;;;7.50;99.90;;;;;;12577718;28;19946;-35
2023/10/20 10:21:57;;;;;;;;;;;7.60;99.90;;;;;;12597309;28;19924;-36
2023/10/20 10:28:07;;;;;;;;;;;7.60;99.90;;;;;;12602983;28;19928;-36
2023/10/20 10:34:09;;;;;;;;;;;7.60;99.90;;;;;;12594523;28;19928;-35
2023/10/20 10:40:13;;;;;;;;;;;7.60;99.90;;;;;;12584887;28;19939;-36
2023/10/20 10:46:15;;;;;;;;;;;7.70;99.90;;;;;;12598212;28;19978;-36
2023/10/20 10:52:17;;;;;;;;;;;7.70;99.90;;;;;;12602405;28;20505;-36
2023/10/20 10:58:18;;;;;;;;;;;7.70;99.90;;;;;;12596122;28;19928;-36
2023/10/20 11:04:20;;;;;;;;;;;7.70;99.90;;;;;;12582772;28;20419;-35
2023/10/20 11:10:28;;;;;;;;;;;7.70;99.90;;;;;;12588394;28;19969;-36
2023/10/20 11:16:29;;;;;;;;;;;7.70;99.90;;;;;;12606680;28;19946;-36
2023/10/20 11:22:36;;;;;;;;;;;7.80;99.90;;;;;;12603655;28;19928;-36
2023/10/20 11:28:38;;;;;;;;;;;7.80;99.90;;;;;;12620348;28;19924;-36
2023/10/20 11:34:40;;;;;;;;;;;7.80;99.90;;;;;;12612432;28;19924;-36
2023/10/20 11:40:41;;;;;;;;;;;7.80;99.90;;;;;;12591516;28;19932;-36
2023/10/20 11:46:43;;;;;;;;;;;7.70;99.90;;;;;;12609418;28;20010;-36
2023/10/20 11:52:45;;;;;;;;;;;7.70;99.90;;;;;;12599892;28;19975;-36
2023/10/20 11:58:47;;;;;;;;;;;7.70;99.90;;;;;;12594982;28;19924;-36
2023/10/20 12:04:48;;;;;;;;;;;7.70;99.90;;;;;;12590827;28;20828;-36
2023/10/20 12:10:50;;;;;;;;;;;7.70;99.90;;;;;;12606021;28;19944;-36
2023/10/20 12:16:53;;;;;;;;;;;7.70;99.90;;;;;;12596741;28;19950;-35
2023/10/20 12:22:58;;;;;;;;;;;7.60;99.90;;;;;;12611910;28;19928;-36
2023/10/20 12:29:00;;;;;;;;;;;7.60;99.90;;;;;;12609620;28;20291;-36
2023/10/20 12:35:02;;;;;;;;;;;7.60;99.90;;;;;;12588572;28;20372;-36
2023/10/20 12:41:04;;;;;;;;;;;7.60;99.90;;;;;;12615763;28;19928;-36
2023/10/20 12:47:06;;;;;;;;;;;7.60;99.90;;;;;;12606993;28;20027;-35
2023/10/20 12:53:10;;;;;;;;;;;7.60;99.90;;;;;;12597409;28;20726;-36
2023/10/20 12:59:12;;;;;;;;;;;7.60;99.90;;;;;;12616369;28;20420;-36
2023/10/20 13:05:14;;;;;;;;;;;7.60;99.90;;;;;;12606719;28;19950;-36
2023/10/20 13:11:16;;;;;;;;;;;7.50;99.90;;;;;;12613434;28;19966;-35
2023/10/20 13:17:18;;;;;;;;;;;7.50;99.90;;;;;;12611400;28;20368;-36
2023/10/20 13:23:20;;;;;;;;;;;7.50;99.90;;;;;;12609570;28;19928;-35
2023/10/20 13:29:22;;;;;;;;;;;7.50;99.90;;;;;;12618049;28;19924;-36
2023/10/20 13:35:23;;;;;;;;;;;7.50;99.90;;;;;;12595625;28;19959;-36
2023/10/20 13:41:25;;;;;;;;;;;7.40;99.90;;;;;;12587552;28;19932;-36
2023/10/20 13:47:27;;;;;;;;;;;7.40;99.90;;;;;;12623755;28;20320;-35
2023/10/20 13:53:29;;;;;;;;;;;7.40;99.90;;;;;;12627784;28;19934;-36
2023/10/20 13:59:30;;;;;;;;;;;7.40;99.90;;;;;;12624421;28;19935;-36
2023/10/20 14:05:32;;;;;;;;;;;7.40;99.90;;;;;;12617153;28;20246;-36
2023/10/20 14:11:34;;;;;;;;;;;7.50;99.90;;;;;;12627497;28;20112;-36
2023/10/20 14:17:36;;;;;;;;;;;7.50;99.90;;;;;;12610453;28;19932;-36
2023/10/20 14:23:38;;;;;;;;;;;7.60;99.90;;;;;;12629669;28;20436;-36
2023/10/20 14:29:40;;;;;;;;;;;7.50;99.90;;;;;;12621103;28;20318;-36
2023/10/20 14:35:42;;;;;;;;;;;7.50;99.90;;;;;;12617499;28;19975;-35
2023/10/20 14:41:44;;;;;;;;;;;7.40;99.90;;;;;;12601982;28;19931;-36
2023/10/20 14:47:46;;;;;;;;;;;7.40;99.90;;;;;;12615240;28;19924;-36
2023/10/20 14:53:49;;;;;;;;;;;7.30;99.90;;;;;;12613489;28;19928;-36
2023/10/20 14:59:50;;;;;;;;;;;7.30;99.90;;;;;;12609826;28;20406;-37
2023/10/20 15:05:52;;;;;;;;;;;7.40;99.90;;;;;;12605897;28;20308;-35
2023/10/20 15:11:54;;;;;;;;;;;7.40;99.90;;;;;;12617131;28;20005;-36
2023/10/20 15:17:56;;;;;;;;;;;7.40;99.90;;;;;;12617086;28;19944;-36
2023/10/20 15:24:00;;;;;;;;;;;7.40;99.90;;;;;;12609206;28;20007;-36
2023/10/20 15:30:03;;;;;;;;;;;7.50;99.90;;;;;;12594346;28;19932;-36
2023/10/20 15:36:06;;;;;;;;;;;7.40;99.90;;;;;;12588094;28;20232;-36
2023/10/20 15:42:08;;;;;;;;;;;7.50;99.90;;;;;;12589822;28;21469;-36
2023/10/20 15:48:09;;;;;;;;;;;7.50;99.90;;;;;;12618117;28;20506;-36
2023/10/20 15:54:16;;;;;;;;;;;7.60;99.90;;;;;;12609563;28;19935;-35
2023/10/20 16:00:19;;;;;;;;;;;7.60;99.90;;;;;;12608830;28;20470;-35
2023/10/20 16:06:21;;;;;;;;;;;7.60;99.90;;;;;;12614231;28;19928;-36
2023/10/20 16:12:22;;;;;;;;;;;7.70;99.90;;;;;;12604818;28;19928;-36
2023/10/20 16:18:24;;;;;;;;;;;7.80;99.90;;;;;;12598977;28;19928;-36
2023/10/20 16:24:26;;;;;;;;;;;7.80;99.90;;;;;;12609928;28;20358;-36
2023/10/20 16:30:28;;;;;;;;;;;7.90;99.90;;;;;;12607553;28;19928;-36
2023/10/20 16:36:30;;;;;;;;;;;7.90;99.90;;;;;;12607760;28;20238;-36
2023/10/20 16:42:32;;;;;;;;;;;8.10;99.90;;;;;;12608795;28;19927;-36
2023/10/20 16:48:33;;;;;;;;;;;8.20;99.90;;;;;;12611330;28;19928;-36
2023/10/20 16:54:35;;;;;;;;;;;8.30;99.90;;;;;;12609403;28;20245;-36
2023/10/20 17:00:38;;;;;;;;;;;8.30;99.90;;;;;;12606932;28;20004;-36
2023/10/20 17:06:40;;;;;;;;;;;8.50;99.90;;;;;;12612412;28;19935;-37
2023/10/20 17:12:42;;;;;;;;;;;8.60;99.90;;;;;;12600474;28;19978;-37
2023/10/20 17:18:43;;;;;;;;;;;8.60;99.90;;;;;;12617580;28;19928;-37
2023/10/20 17:24:45;;;;;;;;;;;8.80;99.90;;;;;;12624677;28;19924;-36
2023/10/20 17:30:52;;;;;;;;;;;8.70;99.90;;;;;;12623971;28;19935;-37
2023/10/20 17:36:54;;;;;;;;;;;8.70;99.90;;;;;;12617033;28;20613;-36
2023/10/20 17:42:56;;;;;;;;;;;8.60;99.90;;;;;;12604576;28;19935;-37
2023/10/20 17:48:57;;;;;;;;;;;8.60;99.90;;;;;;12596313;28;20022;-37
2023/10/20 17:54:59;;;;;;;;;;;8.50;99.90;;;;;;12614013;28;20026;-37
2023/10/20 18:01:08;;;;;;;;;;;8.40;99.90;;;;;;12623625;28;19941;-36
2023/10/20 18:07:10;;;;;;;;;;;8.70;99.90;;;;;;12613549;28;20353;-37
2023/10/20 18:13:12;;;;;;;;;;;9.20;99.90;;;;;;12610203;28;20912;-37
2023/10/20 18:19:13;;;;;;;;;;;9.70;99.90;;;;;;12603116;28;20428;-37
2023/10/20 18:25:16;;;;;;;;;;;9.90;99.90;;;;;;12620255;28;20498;-36
2023/10/20 18:31:18;;;;;;;;;;;10.00;99.90;;;;;;12611265;28;19927;-36
2023/10/20 18:37:19;;;;;;;;;;;10.10;99.90;;;;;;12614658;28;19935;-37
2023/10/20 18:43:21;;;;;;;;;;;10.20;99.90;;;;;;12612953;28;19948;-36
2023/10/20 18:49:23;;;;;;;;;;;10.40;99.90;;;;;;12619062;28;20447;-36
2023/10/20 18:55:27;;;;;;;;;;;10.50;99.90;;;;;;12611557;28;19927;-37
2023/10/20 19:01:28;;;;;;;;;;;10.30;99.90;;;;;;12612706;28;19975;-37
2023/10/20 19:07:30;;;;;;;;;;;10.40;99.90;;;;;;12608527;28;20477;-37
2023/10/20 19:13:33;;;;;;;;;;;10.40;99.90;;;;;;12604070;28;19932;-37
2023/10/20 19:19:35;;;;;;;;;;;10.40;99.90;;;;;;12606705;28;19965;-37
2023/10/20 19:25:38;;;;;;;;;;;10.40;99.90;;;;;;12618040;28;19967;-37
2023/10/20 19:31:41;;;;;;;;;;;10.30;99.90;;;;;;12590025;28;19978;-37
2023/10/20 19:37:43;;;;;;;;;;;9.90;99.90;;;;;;12609257;28;19927;-37
2023/10/20 19:43:45;;;;;;;;;;;9.60;99.90;;;;;;12614816;28;19932;-37
2023/10/20 19:49:47;;;;;;;;;;;9.40;99.90;;;;;;12614649;28;19939;-37
2023/10/20 19:55:48;;;;;;;;;;;9.40;99.90;;;;;;12595452;28;20038;-37
2023/10/20 20:01:50;;;;;;;;;;;9.60;99.90;;;;;;12602847;28;19967;-37
2023/10/20 20:07:53;;;;;;;;;;;9.70;99.90;;;;;;12604200;28;19930;-37
2023/10/20 20:13:55;;;;;;;;;;;9.60;99.90;;;;;;12601595;28;20435;-37
2023/10/20 20:19:57;;;;;;;;;;;9.30;99.90;;;;;;12612700;28;20459;-37
2023/10/20 20:26:01;;;;;;;;;;;9.40;99.90;;;;;;12616104;28;20411;-37
2023/10/20 20:32:03;;;;;;;;;;;9.50;99.90;;;;;;12589244;28;19935;-37
2023/10/20 20:38:05;;;;;;;;;;;9.40;99.90;;;;;;12595053;28;19953;-37
2023/10/20 20:44:07;;;;;;;;;;;9.40;99.90;;;;;;12603347;28;19984;-37
2023/10/20 20:50:08;;;;;;;;;;;9.40;99.90;;;;;;12612451;28;19950;-37
2023/10/20 20:56:19;;;;;;;;;;;9.30;99.90;;;;;;12604011;28;20343;-37
2023/10/20 21:02:21;;;;;;;;;;;9.30;99.90;;;;;;12591350;28;20349;-37
2023/10/20 21:08:22;;;;;;;;;;;9.30;99.90;;;;;;12603951;28;20295;-37
2023/10/20 21:14:24;;;;;;;;;;;9.50;99.90;;;;;;12600990;28;20597;-36
2023/10/20 21:20:26;;;;;;;;;;;10.00;99.90;;;;;;12605994;28;19936;-37
2023/10/20 21:26:28;;;;;;;;;;;10.30;99.90;;;;;;12616384;28;19932;-37
2023/10/20 21:32:30;;;;;;;;;;;10.40;99.90;;;;;;12578987;28;19935;-37
2023/10/20 21:38:31;;;;;;;;;;;10.30;99.90;;;;;;12598666;28;19975;-36
2023/10/20 21:44:33;;;;;;;;;;;10.50;99.90;;;;;;12585632;28;19933;-37
2023/10/20 21:50:35;;;;;;;;;;;10.40;99.90;;;;;;12616834;28;19931;-37
2023/10/20 21:56:37;;;;;;;;;;;10.50;99.90;;;;;;12601040;28;19935;-37
2023/10/20 22:02:38;;;;;;;;;;;10.50;99.90;;;;;;12606910;28;20474;-37
2023/10/20 22:08:41;;;;;;;;;;;10.60;99.90;;;;;;12626351;28;19989;-37
2023/10/20 22:14:42;;;;;;;;;;;10.60;99.90;;;;;;12606594;28;19928;-37
2023/10/20 22:20:44;;;;;;;;;;;10.80;99.90;;;;;;12611014;28;20011;-37
2023/10/20 22:26:46;;;;;;;;;;;10.80;99.90;;;;;;12616883;28;19931;-37
2023/10/20 22:32:48;;;;;;;;;;;11.20;99.90;;;;;;12611024;28;19932;-36
2023/10/20 22:38:50;;;;;;;;;;;11.10;99.90;;;;;;12591809;28;19928;-39
2023/10/20 22:44:52;;;;;;;;;;;11.00;99.90;;;;;;12606871;28;19969;-37
2023/10/20 22:50:54;;;;;;;;;;;11.00;99.90;;;;;;12614087;28;19927;-36
2023/10/20 22:56:56;;;;;;;;;;;11.00;99.90;;;;;;12588482;28;19929;-37
2023/10/20 23:02:58;;;;;;;;;;;11.10;99.90;;;;;;12610372;28;19932;-37
2023/10/20 23:09:00;;;;;;;;;;;11.10;99.90;;;;;;12604769;28;20298;-37
2023/10/20 23:15:02;;;;;;;;;;;11.10;99.90;;;;;;12614935;28;20449;-37
2023/10/20 23:21:04;;;;;;;;;;;11.10;99.90;;;;;;12619313;28;19951;-37
2023/10/20 23:27:06;;;;;;;;;;;11.20;99.90;;;;;;12610309;28;20380;-37
2023/10/20 23:33:07;;;;;;;;;;;11.20;99.90;;;;;;12605963;28;20272;-37
2023/10/20 23:39:09;;;;;;;;;;;11.20;99.90;;;;;;12601689;28;20039;-37
2023/10/20 23:45:11;;;;;;;;;;;11.30;99.90;;;;;;12593810;28;20435;-37
2023/10/20 23:51:13;;;;;;;;;;;11.30;99.90;;;;;;12606250;28;19928;-37
2023/10/20 23:57:15;;;;;;;;;;;11.30;99.90;;;;;;12582851;28;19970;-37
